Terminal Aerodrome Forecast
Issued by NWS

Home | Current Version | Previous Version | Text Only | Print | Product List | Glossary On
Versions: 1 2 3 4 5 6 7 8 9 10 11 12 13 14 15 16 17 18 19
000
FTUS43 KGRB 282000 AAA
TAFATW
TAF AMD
KATW 282047Z 2821/2918 16010KT P6SM OVC120
     FM290300 15009KT P6SM SCT012 OVC035 PROB30 2906/2910 4SM
      -FZDZSN BR OVC012
     FM291000 30006KT 4SM -SN BR OVC007
     FM291300 31011G16KT 5SM -FZDZSN BR OVC010
     FM291600 32017G25KT P6SM OVC018=

USA.gov is the U.S. government's official web portal to all federal, state and local government web resources and services.